Time;durP1;ratioP1;P1;durP2;ratioP2;P2;SDS_P1;SDS_P2;PMS_P1;PMS_P2;Temp;Humidity;BMP_temperature;BMP_pressure;BME280_temperature;BME280_humidity;BME280_pressure;Samples;Min_cycle;Max_cycle;Signal;HPM_P1;HPM_P2
2022/11/21 00:00:19;;;;;;;22.05;14.50;;;4.60;87.30;;;;;;5071283;28;20118;-32
2022/11/21 00:02:44;;;;;;;21.98;13.95;;;4.60;87.20;;;;;;5071203;28;20027;-32
2022/11/21 00:05:10;;;;;;;20.55;13.80;;;4.50;87.20;;;;;;5070750;28;20458;-31
2022/11/21 00:07:36;;;;;;;18.90;12.48;;;4.50;87.40;;;;;;5071109;28;20032;-32
2022/11/21 00:10:01;;;;;;;19.40;12.40;;;4.50;87.40;;;;;;5070937;28;20103;-31
2022/11/21 00:12:27;;;;;;;20.63;12.82;;;4.50;87.40;;;;;;5053047;28;20027;-32
2022/11/21 00:14:52;;;;;;;18.90;11.93;;;4.40;87.40;;;;;;5072252;28;20024;-32
2022/11/21 00:17:18;;;;;;;18.33;12.00;;;4.50;87.50;;;;;;5074938;28;20017;-32
2022/11/21 00:19:44;;;;;;;18.77;12.07;;;4.50;87.40;;;;;;5074818;28;20070;-38
2022/11/21 00:22:09;;;;;;;21.15;13.45;;;4.50;87.50;;;;;;5056843;28;20066;-32
2022/11/21 00:24:35;;;;;;;19.13;12.35;;;4.60;87.40;;;;;;5056585;28;20043;-26
2022/11/21 00:27:00;;;;;;;21.02;12.93;;;4.60;87.40;;;;;;5074508;28;20020;-27
2022/11/21 00:29:27;;;;;;;20.30;12.88;;;4.60;87.20;;;;;;5075071;28;20103;-28
2022/11/21 00:31:52;;;;;;;20.17;13.15;;;4.60;87.20;;;;;;5074621;28;20017;-40
2022/11/21 00:34:18;;;;;;;20.75;12.95;;;4.60;87.40;;;;;;5074496;28;20502;-40
2022/11/21 00:36:44;;;;;;;18.52;11.90;;;4.60;87.40;;;;;;5074522;28;20531;-29
2022/11/21 00:39:09;;;;;;;18.00;11.60;;;4.60;87.50;;;;;;5074480;28;20031;-26
2022/11/21 00:41:35;;;;;;;20.73;12.95;;;4.60;87.30;;;;;;5056321;28;20016;-27
2022/11/21 00:44:00;;;;;;;20.98;13.25;;;4.60;87.30;;;;;;5074379;28;20028;-43
2022/11/21 00:46:26;;;;;;;21.55;13.48;;;4.70;87.40;;;;;;5056343;28;20031;-38
2022/11/21 00:48:51;;;;;;;20.60;12.82;;;4.70;87.30;;;;;;5056279;28;20100;-34
2022/11/21 00:51:17;;;;;;;20.20;13.60;;;4.70;87.30;;;;;;5074374;28;20021;-34
2022/11/21 00:53:43;;;;;;;20.80;13.30;;;4.70;87.20;;;;;;5074151;28;20020;-26
2022/11/21 00:56:08;;;;;;;22.73;13.70;;;4.80;87.30;;;;;;5074058;28;20038;-33
2022/11/21 00:58:34;;;;;;;20.92;12.90;;;4.70;87.20;;;;;;5074011;28;20042;-33
2022/11/21 01:01:10;;;;;;;21.10;13.32;;;4.70;87.10;;;;;;5074072;28;20025;-35
2022/11/21 01:03:36;;;;;;;21.20;12.93;;;4.70;87.20;;;;;;5074123;28;20104;-36
2022/11/21 01:06:05;;;;;;;19.75;13.15;;;4.70;87.20;;;;;;5055441;28;20131;-37
2022/11/21 01:08:30;;;;;;;20.17;13.02;;;4.70;87.20;;;;;;5073893;28;20025;-35
2022/11/21 01:11:00;;;;;;;21.92;13.82;;;4.80;87.10;;;;;;5074016;28;20079;-37
2022/11/21 01:13:26;;;;;;;22.17;13.15;;;4.80;87.10;;;;;;5055882;28;20021;-34
2022/11/21 01:15:51;;;;;;;21.65;13.18;;;4.80;87.10;;;;;;5073754;28;20036;-37
2022/11/21 01:18:17;;;;;;;21.55;12.90;;;4.80;87.10;;;;;;5073827;28;20048;-31
2022/11/21 01:20:42;;;;;;;23.27;13.65;;;4.80;87.10;;;;;;5073723;28;20529;-28
2022/11/21 01:23:08;;;;;;;21.30;13.15;;;4.80;87.10;;;;;;5073735;28;20033;-28
2022/11/21 01:25:34;;;;;;;24.20;14.35;;;4.80;87.00;;;;;;5073155;28;20074;-28
2022/11/21 01:28:00;;;;;;;20.95;13.20;;;4.80;87.10;;;;;;5072667;28;20060;-42
2022/11/21 01:30:25;;;;;;;21.35;12.98;;;4.80;87.00;;;;;;5073361;28;20502;-41
2022/11/21 01:32:51;;;;;;;20.95;13.23;;;4.80;87.00;;;;;;5073242;28;20435;-40
2022/11/21 01:35:17;;;;;;;20.70;12.70;;;4.70;87.00;;;;;;5073197;28;20024;-30
2022/11/21 01:37:46;;;;;;;22.17;13.57;;;4.70;87.00;;;;;;5073187;28;20480;-33
2022/11/21 01:40:12;;;;;;;20.95;12.98;;;4.70;87.00;;;;;;5073287;28;20024;-34
2022/11/21 01:43:01;;;;;;;23.50;14.05;;;4.70;87.10;;;;;;5073468;28;20105;-34
2022/11/21 01:45:50;;;;;;;20.92;12.98;;;4.70;87.00;;;;;;5073337;28;20028;-45
2022/11/21 01:48:16;;;;;;;21.42;12.82;;;4.60;86.90;;;;;;5073029;28;20427;-28
2022/11/21 01:50:42;;;;;;;20.77;12.52;;;4.60;87.00;;;;;;5072953;28;20039;-30
2022/11/21 01:53:08;;;;;;;20.73;12.23;;;4.60;87.10;;;;;;5073030;28;20028;-30
2022/11/21 01:55:34;;;;;;;20.60;12.57;;;4.60;87.10;;;;;;5073180;28;20027;-33
2022/11/21 01:58:01;;;;;;;20.38;12.30;;;4.60;87.00;;;;;;5072960;28;20503;-31
2022/11/21 02:00:30;;;;;;;18.40;12.32;;;4.60;87.00;;;;;;5072921;28;20452;-31
2022/11/21 02:03:01;;;;;;;21.52;13.10;;;4.70;87.00;;;;;;5055022;28;20024;-31
2022/11/21 02:05:30;;;;;;;20.45;13.82;;;4.70;87.00;;;;;;5072577;28;20048;-32
2022/11/21 02:07:59;;;;;;;21.73;13.52;;;4.70;87.00;;;;;;5072654;28;20546;-30
2022/11/21 02:10:26;;;;;;;20.65;12.95;;;4.70;86.90;;;;;;5072502;28;20024;-28
2022/11/21 02:12:54;;;;;;;21.10;13.43;;;4.70;87.00;;;;;;5072621;28;20048;-28
2022/11/21 02:15:22;;;;;;;22.50;13.80;;;4.70;86.90;;;;;;5072558;28;20031;-31
2022/11/21 02:17:48;;;;;;;20.65;13.00;;;4.70;86.90;;;;;;5072619;28;20039;-29
2022/11/21 02:20:16;;;;;;;19.08;13.13;;;4.70;86.90;;;;;;5072709;28;20036;-29
2022/11/21 02:23:19;;;;;;;22.50;13.57;;;4.80;87.00;;;;;;5072384;28;20464;-28
2022/11/21 02:25:45;;;;;;;20.25;12.57;;;4.80;86.90;;;;;;5054340;28;20028;-29
2022/11/21 02:28:13;;;;;;;20.92;13.45;;;4.80;86.90;;;;;;5072239;28;20028;-27
2022/11/21 02:30:40;;;;;;;19.58;12.23;;;4.80;86.90;;;;;;5072310;28;20035;-28
2022/11/21 02:33:06;;;;;;;22.85;13.27;;;4.80;86.80;;;;;;5072209;28;20103;-28
2022/11/21 02:35:35;;;;;;;20.42;13.23;;;4.90;86.90;;;;;;5072272;28;20429;-28
2022/11/21 02:38:01;;;;;;;20.17;12.55;;;4.90;86.90;;;;;;5071717;28;20032;-27
2022/11/21 02:40:31;;;;;;;22.13;13.65;;;4.90;86.90;;;;;;5072040;28;20564;-25
2022/11/21 02:42:59;;;;;;;21.20;13.00;;;4.90;86.90;;;;;;5072138;28;20388;-30
2022/11/21 02:45:42;;;;;;;23.35;13.20;;;4.90;86.90;;;;;;5072135;28;20489;-26
2022/11/21 02:48:08;;;;;;;23.63;13.75;;;4.90;86.80;;;;;;5071858;28;20055;-27
2022/11/21 02:50:38;;;;;;;21.48;12.65;;;4.90;86.80;;;;;;5071864;28;20031;-28
2022/11/21 02:53:05;;;;;;;21.02;13.23;;;4.90;86.70;;;;;;5071719;28;20078;-26
2022/11/21 02:55:31;;;;;;;20.60;12.98;;;4.90;86.70;;;;;;5071866;28;20020;-30
2022/11/21 02:57:57;;;;;;;20.23;12.73;;;4.90;86.70;;;;;;5072014;28;20043;-30
2022/11/21 03:00:23;;;;;;;22.45;13.38;;;4.90;86.70;;;;;;5071792;28;20029;-28
2022/11/21 03:02:49;;;;;;;22.50;13.40;;;4.90;86.80;;;;;;5071796;28;20170;-31
2022/11/21 03:05:17;;;;;;;22.02;13.15;;;4.80;86.80;;;;;;5071558;28;20411;-29
2022/11/21 03:07:44;;;;;;;20.83;12.75;;;4.80;86.80;;;;;;5071952;28;20097;-33
2022/11/21 03:10:10;;;;;;;19.42;12.32;;;4.80;86.80;;;;;;5071808;28;20435;-29
2022/11/21 03:12:41;;;;;;;21.00;13.45;;;4.80;86.80;;;;;;5071779;28;20480;-32
2022/11/21 03:15:09;;;;;;;23.65;13.85;;;4.70;86.80;;;;;;5071584;28;20449;-31
2022/11/21 03:17:34;;;;;;;21.08;13.20;;;4.70;86.90;;;;;;5071572;28;20059;-32
2022/11/21 03:20:00;;;;;;;21.25;13.23;;;4.70;86.90;;;;;;5071592;28;20467;-30
2022/11/21 03:22:26;;;;;;;23.73;13.35;;;4.70;86.90;;;;;;5071420;28;20032;-29
2022/11/21 03:24:52;;;;;;;21.88;13.05;;;4.70;86.90;;;;;;5071449;28;20112;-31
2022/11/21 03:27:17;;;;;;;21.10;13.18;;;4.60;86.80;;;;;;5071447;28;20025;-34
2022/11/21 03:29:43;;;;;;;24.30;13.80;;;4.60;86.90;;;;;;5071624;28;20020;-33
2022/11/21 03:32:09;;;;;;;25.13;14.07;;;4.60;87.00;;;;;;5071513;28;20039;-33
2022/11/21 03:34:35;;;;;;;23.13;13.18;;;4.60;86.90;;;;;;5071282;28;20030;-33
2022/11/21 03:37:01;;;;;;;21.52;13.52;;;4.60;87.50;;;;;;5071290;28;20047;-33
2022/11/21 03:39:28;;;;;;;23.08;13.65;;;4.70;87.00;;;;;;5071214;28;20021;-34
2022/11/21 03:41:53;;;;;;;24.17;13.27;;;4.60;87.00;;;;;;5071401;28;20218;-36
2022/11/21 03:44:19;;;;;;;22.67;13.98;;;4.60;86.90;;;;;;5071342;28;20094;-38
2022/11/21 03:46:45;;;;;;;25.20;14.57;;;4.60;87.00;;;;;;5071229;28;20107;-33
2022/11/21 03:49:12;;;;;;;26.05;14.95;;;4.60;86.90;;;;;;5071350;28;20081;-34
2022/11/21 03:51:39;;;;;;;25.25;15.38;;;4.60;87.00;;;;;;5075487;28;20103;-33
2022/11/21 03:54:05;;;;;;;28.00;14.55;;;4.60;87.00;;;;;;5075301;28;20567;-31
2022/11/21 03:56:30;;;;;;;25.17;13.85;;;4.60;87.00;;;;;;5075192;28;20158;-31
2022/11/21 03:58:56;;;;;;;25.77;13.90;;;4.60;87.00;;;;;;5075051;28;20399;-27
2022/11/21 04:01:22;;;;;;;23.70;13.40;;;4.60;87.00;;;;;;5056980;28;20036;-29
2022/11/21 04:03:48;;;;;;;29.45;14.20;;;4.60;87.00;;;;;;5075073;28;20041;-42
2022/11/21 04:06:16;;;;;;;29.08;14.43;;;4.60;87.00;;;;;;5074695;28;20076;-33
2022/11/21 04:08:42;;;;;;;27.40;13.50;;;4.70;87.10;;;;;;5075186;28;20414;-32
2022/11/21 04:11:08;;;;;;;23.60;13.13;;;4.60;87.10;;;;;;5074861;28;20032;-29
2022/11/21 04:13:33;;;;;;;24.10;13.18;;;4.70;87.10;;;;;;5074928;28;20066;-35
2022/11/21 04:15:59;;;;;;;26.48;14.18;;;4.70;87.10;;;;;;5074851;28;20108;-31
2022/11/21 04:18:25;;;;;;;24.75;14.13;;;4.70;87.10;;;;;;5074817;28;20456;-33
2022/11/21 04:20:58;;;;;;;23.02;12.80;;;4.70;87.00;;;;;;5074897;28;20406;-31
2022/11/21 04:23:24;;;;;;;24.55;13.77;;;4.70;87.10;;;;;;5074758;28;20079;-40
2022/11/21 04:25:49;;;;;;;27.00;13.98;;;4.70;87.10;;;;;;5074815;28;20557;-36
2022/11/21 04:28:15;;;;;;;26.77;15.20;;;4.70;87.00;;;;;;5074651;28;20060;-37
2022/11/21 04:30:40;;;;;;;26.95;15.10;;;4.70;87.10;;;;;;5074683;28;20029;-37
2022/11/21 04:33:06;;;;;;;29.42;15.27;;;4.70;87.10;;;;;;5074628;28;20497;-37
2022/11/21 04:35:32;;;;;;;25.25;13.93;;;4.70;87.00;;;;;;5074551;28;20047;-36
2022/11/21 04:37:57;;;;;;;25.33;13.88;;;4.70;87.10;;;;;;5074602;28;20048;-29
2022/11/21 04:40:23;;;;;;;27.95;14.32;;;4.70;87.10;;;;;;5074369;28;20025;-33
2022/11/21 04:42:49;;;;;;;25.25;14.05;;;4.70;87.00;;;;;;5074445;28;20036;-28
2022/11/21 04:45:16;;;;;;;23.80;13.52;;;4.70;87.10;;;;;;5074345;28;20163;-30
2022/11/21 04:47:44;;;;;;;26.15;14.68;;;4.70;87.10;;;;;;5074374;28;20029;-30
2022/11/21 04:50:11;;;;;;;25.40;14.10;;;4.70;87.10;;;;;;5074292;28;20033;-28
2022/11/21 04:52:37;;;;;;;25.80;13.50;;;4.70;87.10;;;;;;5074278;28;20048;-29
2022/11/21 04:55:04;;;;;;;25.83;13.90;;;4.70;87.10;;;;;;5074043;28;20070;-31
2022/11/21 04:57:30;;;;;;;25.58;13.85;;;4.70;87.10;;;;;;5074253;28;20056;-31
2022/11/21 04:59:56;;;;;;;24.25;13.82;;;4.70;87.60;;;;;;5073943;28;20025;-29
2022/11/21 05:02:22;;;;;;;27.55;14.77;;;4.80;87.10;;;;;;5073636;28;20494;-30
2022/11/21 05:04:48;;;;;;;23.90;13.70;;;4.70;87.00;;;;;;5073874;28;20476;-30
2022/11/21 05:07:13;;;;;;;26.38;14.57;;;4.70;87.00;;;;;;5073779;28;20052;-29
2022/11/21 05:09:39;;;;;;;24.85;13.85;;;4.70;87.00;;;;;;5073805;28;20075;-32
2022/11/21 05:14:49;;;;;;;29.30;15.30;;;4.60;87.00;;;;;;5074140;28;20094;-33
2022/11/21 05:17:16;;;;;;;30.45;15.43;;;4.60;87.00;;;;;;5073565;28;20021;-33
2022/11/21 05:19:41;;;;;;;29.95;15.50;;;4.60;87.10;;;;;;5073588;28;20075;-33
2022/11/21 05:22:07;;;;;;;26.90;14.85;;;4.60;87.10;;;;;;5073310;28;20442;-28
2022/11/21 05:24:32;;;;;;;29.30;15.13;;;4.70;87.20;;;;;;5073460;28;20103;-34
2022/11/21 05:26:58;;;;;;;28.00;15.63;;;4.70;87.20;;;;;;5073562;28;20032;-32
2022/11/21 05:29:24;;;;;;;26.35;13.45;;;4.70;87.10;;;;;;5073436;28;20024;-31
2022/11/21 05:31:49;;;;;;;27.50;14.02;;;4.70;87.10;;;;;;5073451;28;20035;-29
2022/11/21 05:34:15;;;;;;;29.45;14.52;;;4.70;87.10;;;;;;5073244;28;20099;-31
2022/11/21 05:36:40;;;;;;;29.30;14.68;;;4.70;87.10;;;;;;5055480;28;20024;-34
2022/11/21 05:39:06;;;;;;;29.42;14.32;;;4.80;87.10;;;;;;5073316;28;20050;-35
2022/11/21 05:41:31;;;;;;;28.67;15.05;;;4.80;87.10;;;;;;5073647;28;20025;-31
2022/11/21 05:43:57;;;;;;;28.67;13.75;;;4.80;87.10;;;;;;5073397;28;20123;-32
2022/11/21 05:46:24;;;;;;;29.25;14.80;;;4.70;87.10;;;;;;5073282;28;20039;-36
2022/11/21 05:48:52;;;;;;;35.08;14.82;;;4.70;87.10;;;;;;5073408;28;20035;-33
2022/11/21 05:51:18;;;;;;;33.67;15.15;;;4.70;87.10;;;;;;5073066;28;20385;-37
2022/11/21 05:53:45;;;;;;;29.00;14.88;;;4.70;87.10;;;;;;5073044;28;20044;-35
2022/11/21 05:56:12;;;;;;;32.03;14.95;;;4.70;87.20;;;;;;5072989;28;20104;-31
2022/11/21 05:58:38;;;;;;;28.95;13.70;;;4.70;87.20;;;;;;5072948;28;20035;-28
2022/11/21 06:01:06;;;;;;;32.63;15.13;;;4.70;87.20;;;;;;5072785;28;20056;-39
2022/11/21 06:03:35;;;;;;;35.72;15.50;;;4.70;87.20;;;;;;5072821;28;20025;-31
2022/11/21 06:06:00;;;;;;;35.58;16.17;;;4.70;87.20;;;;;;5054409;28;20511;-28
2022/11/21 06:08:27;;;;;;;34.47;16.00;;;4.70;87.20;;;;;;5072596;28;20056;-33
2022/11/21 06:10:53;;;;;;;38.95;17.05;;;4.70;87.20;;;;;;5072607;28;20035;-28
2022/11/21 06:13:22;;;;;;;36.63;16.63;;;4.70;87.30;;;;;;5071872;28;20029;-30
2022/11/21 06:15:51;;;;;;;35.38;15.98;;;4.70;87.40;;;;;;5072781;28;20028;-30
2022/11/21 06:18:17;;;;;;;35.63;16.83;;;4.80;87.40;;;;;;5072782;28;20388;-29
2022/11/21 06:20:44;;;;;;;40.85;18.08;;;4.70;87.40;;;;;;5072414;28;20268;-30
2022/11/21 06:23:10;;;;;;;37.83;17.65;;;4.70;87.50;;;;;;5072420;28;20050;-35
2022/11/21 06:25:35;;;;;;;52.17;18.38;;;4.80;87.50;;;;;;5072325;28;20434;-28
2022/11/21 06:28:01;;;;;;;36.58;16.75;;;4.80;87.50;;;;;;5072301;28;20024;-35
2022/11/21 06:30:27;;;;;;;41.70;18.88;;;4.80;87.50;;;;;;5072199;28;20078;-33
2022/11/21 06:32:52;;;;;;;32.03;15.95;;;4.80;87.50;;;;;;5072359;28;20077;-32
2022/11/21 06:35:18;;;;;;;37.90;16.95;;;4.80;87.50;;;;;;5072330;28;20169;-31
2022/11/21 06:37:43;;;;;;;33.92;17.02;;;4.80;87.50;;;;;;5072288;28;20481;-35
2022/11/21 06:40:10;;;;;;;33.47;17.17;;;4.80;87.50;;;;;;5072053;28;20055;-34
2022/11/21 06:42:35;;;;;;;30.88;15.60;;;4.80;87.50;;;;;;5072110;28;20122;-29
2022/11/21 06:45:01;;;;;;;35.53;17.10;;;4.80;87.60;;;;;;5072041;28;20083;-31
2022/11/21 06:47:26;;;;;;;33.58;15.65;;;4.80;87.60;;;;;;5072064;28;20024;-34
2022/11/21 06:49:52;;;;;;;34.50;15.60;;;4.80;87.50;;;;;;5071821;28;20158;-37
2022/11/21 06:52:18;;;;;;;42.35;18.35;;;4.80;87.70;;;;;;5071799;28;20397;-37
2022/11/21 06:54:43;;;;;;;34.05;15.82;;;4.80;87.70;;;;;;5071952;28;20066;-32
2022/11/21 06:57:09;;;;;;;39.20;15.55;;;4.80;87.70;;;;;;5071760;28;20035;-29
2022/11/21 06:59:34;;;;;;;50.03;17.38;;;4.90;87.80;;;;;;5071871;28;20024;-39
2022/11/21 07:02:00;;;;;;;30.48;15.57;;;4.80;87.70;;;;;;5071783;28;20055;-33
2022/11/21 07:04:25;;;;;;;33.30;15.45;;;4.80;87.80;;;;;;5071444;28;20033;-30
2022/11/21 07:06:51;;;;;;;32.05;15.13;;;4.80;87.90;;;;;;5071495;28;20049;-28
2022/11/21 07:09:16;;;;;;;32.33;14.55;;;4.80;87.90;;;;;;5071867;28;20031;-32
2022/11/21 07:11:42;;;;;;;35.60;16.42;;;4.80;88.00;;;;;;5071806;28;20016;-31
2022/11/21 07:14:08;;;;;;;35.72;15.45;;;4.80;87.90;;;;;;5071630;28;20029;-28
2022/11/21 07:16:34;;;;;;;32.88;16.40;;;4.80;88.00;;;;;;5071698;28;20141;-36
2022/11/21 07:18:59;;;;;;;29.83;14.95;;;4.80;88.10;;;;;;5071729;28;20035;-33
2022/11/21 07:21:25;;;;;;;40.92;16.50;;;4.70;88.20;;;;;;5071714;28;20028;-29
2022/11/21 07:23:51;;;;;;;32.28;14.93;;;4.70;88.20;;;;;;5071618;28;20564;-31
2022/11/21 07:26:16;;;;;;;29.02;14.80;;;4.70;88.30;;;;;;5071380;28;20059;-30
2022/11/21 07:28:42;;;;;;;29.35;15.07;;;4.70;88.30;;;;;;5071895;28;20095;-31
2022/11/21 07:31:09;;;;;;;24.30;13.40;;;4.80;88.30;;;;;;5071450;28;20103;-34
2022/11/21 07:33:36;;;;;;;26.73;12.35;;;4.80;88.20;;;;;;5053435;28;20365;-29
2022/11/21 07:36:02;;;;;;;24.70;12.98;;;4.80;88.20;;;;;;5071501;28;20024;-29
2022/11/21 07:38:28;;;;;;;23.42;12.45;;;4.80;88.20;;;;;;5071467;28;20028;-33
2022/11/21 07:40:56;;;;;;;23.42;12.90;;;4.80;88.20;;;;;;5071453;28;20037;-30
2022/11/21 07:43:21;;;;;;;26.60;13.10;;;4.90;88.20;;;;;;5071591;28;20032;-27
2022/11/21 07:45:47;;;;;;;26.70;13.75;;;4.90;88.20;;;;;;5071428;28;20082;-34
2022/11/21 07:48:13;;;;;;;25.35;14.15;;;4.90;88.20;;;;;;5071126;28;20051;-28
2022/11/21 07:50:39;;;;;;;23.00;12.63;;;5.00;88.20;;;;;;5071233;28;20024;-29
2022/11/21 07:53:08;;;;;;;23.67;13.40;;;5.00;88.10;;;;;;5071230;28;20047;-28
2022/11/21 07:55:33;;;;;;;68.65;13.60;;;5.00;88.10;;;;;;5071344;28;20023;-28
2022/11/21 07:58:04;;;;;;;20.58;11.90;;;5.00;88.20;;;;;;5053105;28;20025;-30
2022/11/21 08:00:31;;;;;;;21.35;11.93;;;5.10;88.20;;;;;;5071222;28;20111;-28
2022/11/21 08:02:57;;;;;;;27.88;12.38;;;5.10;88.10;;;;;;5071334;28;20025;-28
2022/11/21 08:05:23;;;;;;;24.45;12.45;;;5.10;88.10;;;;;;5071091;28;20127;-32
2022/11/21 08:07:49;;;;;;;24.08;12.85;;;5.10;88.00;;;;;;5071314;28;20036;-29
2022/11/21 08:10:15;;;;;;;23.48;12.48;;;5.10;88.00;;;;;;5071330;28;20024;-29
2022/11/21 08:12:41;;;;;;;26.05;13.60;;;5.20;88.10;;;;;;5071453;28;20024;-30
2022/11/21 08:15:07;;;;;;;24.95;12.63;;;5.20;88.00;;;;;;5071259;28;20039;-29
2022/11/21 08:17:33;;;;;;;24.65;13.57;;;5.20;88.00;;;;;;5071492;28;20044;-29
2022/11/21 08:19:59;;;;;;;26.83;14.45;;;5.20;88.00;;;;;;5071343;28;20111;-33
2022/11/21 08:22:25;;;;;;;29.98;13.85;;;5.20;88.50;;;;;;5071294;28;20125;-34
2022/11/21 08:24:53;;;;;;;26.23;13.45;;;5.20;88.00;;;;;;5053656;28;20048;-31
2022/11/21 08:27:20;;;;;;;24.50;12.77;;;5.20;88.00;;;;;;5071500;28;20036;-30
2022/11/21 08:29:45;;;;;;;24.33;13.10;;;5.20;87.90;;;;;;5071181;28;20078;-44
2022/11/21 08:32:11;;;;;;;23.88;13.10;;;5.30;87.90;;;;;;5071257;28;20028;-29
2022/11/21 08:34:37;;;;;;;28.08;13.18;;;5.30;87.90;;;;;;5071271;28;20104;-32
2022/11/21 08:37:02;;;;;;;21.13;11.38;;;5.20;87.80;;;;;;5074262;28;20024;-27
2022/11/21 08:39:29;;;;;;;21.77;11.73;;;5.20;87.90;;;;;;5057354;28;20025;-32
2022/11/21 08:42:02;;;;;;;23.88;12.80;;;5.20;88.00;;;;;;5074729;28;20021;-30
2022/11/21 08:44:36;;;;;;;21.48;11.80;;;5.30;88.00;;;;;;5075014;28;20513;-33
2022/11/21 08:47:02;;;;;;;22.35;12.52;;;5.20;87.90;;;;;;5074757;28;20027;-34
2022/11/21 08:49:28;;;;;;;21.58;11.73;;;5.20;87.90;;;;;;5074632;28;20111;-37
2022/11/21 08:51:55;;;;;;;22.33;11.82;;;5.20;87.90;;;;;;5074615;28;20054;-32
2022/11/21 08:54:23;;;;;;;22.85;11.98;;;5.20;87.90;;;;;;5074366;28;20017;-30
2022/11/21 08:56:49;;;;;;;20.85;11.70;;;5.20;88.00;;;;;;5074586;28;20032;-34
2022/11/21 08:59:15;;;;;;;24.70;12.45;;;5.30;88.00;;;;;;5074670;28;20444;-28
2022/11/21 09:01:41;;;;;;;25.27;12.55;;;5.30;88.00;;;;;;5074802;28;20025;-29
2022/11/21 09:04:07;;;;;;;26.00;12.52;;;5.30;88.10;;;;;;5074294;28;20050;-32
2022/11/21 09:06:32;;;;;;;24.98;11.85;;;5.30;88.00;;;;;;5074260;28;20091;-31
2022/11/21 09:08:58;;;;;;;23.33;12.07;;;5.30;88.00;;;;;;5056240;28;20024;-29
2022/11/21 09:11:24;;;;;;;24.60;11.93;;;5.30;88.00;;;;;;5074576;28;20021;-28
2022/11/21 09:19:20;;;;;;;23.67;11.82;;;5.40;87.90;;;;;;5074253;28;20040;-33
2022/11/21 09:21:50;;;;;;;20.08;10.77;;;5.40;87.90;;;;;;5074153;28;20088;-30
2022/11/21 09:24:16;;;;;;;22.08;11.93;;;5.40;87.90;;;;;;5056235;28;20066;-30
2022/11/21 09:26:41;;;;;;;25.88;12.75;;;5.50;88.00;;;;;;5074079;28;20025;-31
2022/11/21 09:29:09;;;;;;;22.10;11.00;;;5.50;88.00;;;;;;5074409;28;20017;-30
2022/11/21 09:31:38;;;;;;;23.20;12.13;;;5.60;88.60;;;;;;5073913;28;20355;-34
2022/11/21 09:34:04;;;;;;;23.38;11.18;;;5.60;88.00;;;;;;5073868;28;20028;-29
2022/11/21 09:36:29;;;;;;;26.67;11.27;;;5.60;88.00;;;;;;5073714;28;20076;-32
2022/11/21 09:38:55;;;;;;;20.17;10.23;;;5.60;87.90;;;;;;5073724;28;20024;-32
2022/11/21 09:42:05;;;;;;;25.52;10.80;;;5.60;87.90;;;;;;5073550;28;20025;-28
2022/11/21 09:45:03;;;;;;;26.55;10.05;;;5.70;88.70;;;;;;5073548;28;20115;-31
2022/11/21 09:47:56;;;;;;;20.95;10.15;;;5.70;88.00;;;;;;5072652;28;20016;-30
2022/11/21 09:50:25;;;;;;;24.10;10.48;;;5.80;88.00;;;;;;5068749;28;20044;-28
2022/11/21 09:53:16;;;;;;;25.42;11.43;;;5.90;87.90;;;;;;5073659;28;20383;-34
2022/11/21 09:55:58;;;;;;;23.45;10.63;;;6.00;87.80;;;;;;5062095;28;20159;-34
2022/11/21 09:59:01;;;;;;;25.67;10.63;;;6.00;87.70;;;;;;5073557;28;20021;-28
2022/11/21 10:01:28;;;;;;;25.17;10.60;;;6.00;87.50;;;;;;5055605;28;20064;-28
2022/11/21 10:03:54;;;;;;;19.00;10.60;;;5.90;87.60;;;;;;5073518;28;20017;-29
2022/11/21 10:06:22;;;;;;;34.17;10.93;;;5.90;87.80;;;;;;5072925;28;20071;-27
2022/11/21 10:08:51;;;;;;;25.77;11.02;;;5.90;87.90;;;;;;5073156;28;20233;-30
2022/11/21 10:14:47;;;;;;;21.55;10.73;;;6.00;87.90;;;;;;5073119;28;20035;-31
2022/11/21 10:18:11;;;;;;;24.63;10.60;;;6.00;87.90;;;;;;5055398;28;20488;-30
2022/11/21 10:20:48;;;;;;;17.23;9.88;;;6.10;87.90;;;;;;4971936;28;20030;-30
2022/11/21 10:23:14;;;;;;;21.52;10.65;;;6.20;87.90;;;;;;4971984;28;20049;-27
2022/11/21 10:25:49;;;;;;;28.75;11.10;;;6.20;87.80;;;;;;5026722;28;20360;-28
2022/11/21 10:28:19;;;;;;;24.33;11.85;;;6.20;87.90;;;;;;5072605;28;20107;-28
2022/11/21 10:30:46;;;;;;;23.75;11.13;;;6.20;87.80;;;;;;5072855;28;20021;-28
2022/11/21 10:33:17;;;;;;;23.38;11.68;;;6.20;87.80;;;;;;5072681;28;20376;-32
2022/11/21 10:36:11;;;;;;;29.63;11.70;;;6.20;87.90;;;;;;5072521;28;20019;-33
2022/11/21 10:38:39;;;;;;;20.02;10.32;;;6.20;88.20;;;;;;5072696;28;20159;-27
2022/11/21 10:41:37;;;;;;;23.15;11.18;;;6.20;88.30;;;;;;5072583;28;20086;-33
2022/11/21 10:47:27;;;;;;;23.98;11.90;;;6.20;88.40;;;;;;5072590;28;20098;-27
2022/11/21 10:50:17;;;;;;;30.52;11.60;;;6.20;88.40;;;;;;5072367;28;20025;-31
2022/11/21 10:53:00;;;;;;;23.35;11.60;;;6.30;88.40;;;;;;5072395;28;20024;-29
2022/11/21 10:55:26;;;;;;;26.20;12.48;;;6.30;88.30;;;;;;5072340;28;20013;-30
2022/11/21 10:57:53;;;;;;;29.35;12.98;;;6.40;88.40;;;;;;5072366;28;20047;-27
2022/11/21 11:00:26;;;;;;;24.50;12.27;;;6.40;88.40;;;;;;5071935;28;20025;-30
2022/11/21 11:02:54;;;;;;;25.93;12.73;;;6.50;88.40;;;;;;5072170;28;20091;-30
2022/11/21 11:05:25;;;;;;;25.17;13.38;;;6.50;88.40;;;;;;5053899;28;20052;-30
2022/11/21 11:08:08;;;;;;;28.15;13.27;;;6.60;88.40;;;;;;5072160;28;20036;-30
2022/11/21 11:10:55;;;;;;;29.38;12.63;;;6.60;88.30;;;;;;5072188;28;20484;-30
2022/11/21 11:13:33;;;;;;;24.95;12.90;;;6.70;88.30;;;;;;5071538;28;20033;-29
2022/11/21 11:16:10;;;;;;;28.10;13.55;;;6.70;88.20;;;;;;5072386;28;20354;-29
2022/11/21 11:19:00;;;;;;;26.33;13.48;;;6.70;88.80;;;;;;5072053;28;20124;-30
2022/11/21 11:21:40;;;;;;;28.55;14.30;;;6.80;88.40;;;;;;5072008;28;20064;-33
2022/11/21 11:24:20;;;;;;;27.50;13.90;;;6.80;88.40;;;;;;5071989;28;20074;-31
2022/11/21 11:26:46;;;;;;;29.70;13.52;;;6.80;88.40;;;;;;5071946;28;20039;-34
2022/11/21 11:29:20;;;;;;;28.80;14.90;;;6.90;88.40;;;;;;5071831;28;20032;-33
2022/11/21 11:31:58;;;;;;;30.42;15.00;;;7.00;88.40;;;;;;5071840;28;20029;-30
2022/11/21 11:34:49;;;;;;;29.90;14.82;;;7.00;88.30;;;;;;5071832;28;20123;-30
2022/11/21 11:37:44;;;;;;;25.88;13.98;;;7.10;88.30;;;;;;5053611;28;20032;-31
2022/11/21 11:40:33;;;;;;;25.35;13.80;;;7.10;88.30;;;;;;5071593;28;20032;-32
2022/11/21 11:49:18;;;;;;;27.42;13.68;;;7.40;88.20;;;;;;5071644;28;20078;-33
2022/11/21 11:51:53;;;;;;;;;;;7.50;88.10;;;;;;5072077;28;20036;-31
2022/11/21 11:54:24;;;;;;;22.83;12.38;;;7.60;88.00;;;;;;5071594;28;20006;-33
2022/11/21 11:56:50;;;;;;;28.13;14.00;;;7.60;87.90;;;;;;5071614;28;20040;-30
2022/11/21 11:59:24;;;;;;;25.98;14.02;;;7.70;87.80;;;;;;5071667;28;20380;-33
2022/11/21 12:02:11;;;;;;;27.38;13.88;;;7.70;87.80;;;;;;5071617;28;20048;-29
2022/11/21 12:04:46;;;;;;;25.13;13.73;;;7.70;87.80;;;;;;5071133;28;20060;-39
2022/11/21 12:07:20;;;;;;;28.85;14.45;;;7.80;87.90;;;;;;5071096;28;20036;-36
2022/11/21 12:10:05;;;;;;;26.98;13.52;;;7.80;87.90;;;;;;5071081;28;20028;-37
2022/11/21 12:12:56;;;;;;;25.60;14.60;;;7.80;87.90;;;;;;5074760;28;20081;-37
2022/11/21 12:15:48;;;;;;;28.33;14.68;;;7.90;88.00;;;;;;5074873;28;20511;-31
2022/11/21 12:18:19;;;;;;;29.60;14.98;;;7.90;88.00;;;;;;5056757;28;20143;-35
2022/11/21 12:21:00;;;;;;;28.98;15.15;;;8.00;88.00;;;;;;5074955;28;20465;-31
2022/11/21 12:23:49;;;;;;;30.02;15.93;;;8.00;87.90;;;;;;5074697;28;20029;-33
2022/11/21 12:26:46;;;;;;;24.13;14.45;;;8.10;87.90;;;;;;5074706;28;20043;-30
2022/11/21 12:29:33;;;;;;;25.10;13.80;;;8.10;87.80;;;;;;5074583;28;20032;-31
2022/11/21 12:32:14;;;;;;;25.88;14.18;;;8.20;87.80;;;;;;5074552;28;20040;-34
2022/11/21 12:35:13;;;;;;;26.98;15.25;;;8.20;87.70;;;;;;5056767;28;20067;-30
2022/11/21 12:38:02;;;;;;;23.63;14.27;;;8.30;87.70;;;;;;5056436;28;20040;-30
2022/11/21 12:40:39;;;;;;;24.13;13.45;;;8.30;87.60;;;;;;5074443;28;20037;-30
2022/11/21 12:43:26;;;;;;;25.27;13.80;;;8.40;87.60;;;;;;5074479;28;20028;-31
2022/11/21 12:46:01;;;;;;;22.95;13.30;;;8.40;87.60;;;;;;5074486;28;20032;-31
2022/11/21 12:54:32;;;;;;;22.52;13.25;;;8.40;87.60;;;;;;5074961;28;20043;-32
2022/11/21 12:57:15;;;;;;;20.10;12.15;;;8.40;87.70;;;;;;5074353;28;20033;-31
2022/11/21 13:00:00;;;;;;;23.52;12.65;;;8.50;87.80;;;;;;5074265;28;20103;-33
2022/11/21 13:02:43;;;;;;;24.00;13.13;;;8.50;87.80;;;;;;5074199;28;20024;-31
2022/11/21 13:05:13;;;;;;;20.10;12.52;;;8.40;87.70;;;;;;5073901;28;20044;-32
2022/11/21 13:07:40;;;;;;;19.65;12.75;;;8.40;87.80;;;;;;5074183;28;20032;-30
2022/11/21 13:10:14;;;;;;;22.45;13.60;;;8.40;87.90;;;;;;5074181;28;20028;-35
2022/11/21 13:12:48;;;;;;;20.48;12.30;;;8.40;87.90;;;;;;5074040;28;20025;-32
2022/11/21 13:15:23;;;;;;;18.50;12.52;;;8.50;88.00;;;;;;5074303;28;20028;-36
2022/11/21 13:17:55;;;;;;;20.60;12.93;;;8.40;88.00;;;;;;5073944;28;20079;-33